Accueil
METAR-TAF:

METAR-TAF

Aéroports :

Aéroport international de Berne

Berne, Suisse

latitude: 46-55N, longitude: 007-30E, altitude: 505 m

Observation

Le bulletin a été fait il y a 21 minutes, à 22:50 UTC
Vent 4 kt de est/sud-est
Température 15°C
Humidité 100%
Pression 1017 hPa
Visibilité 10 km ou plus
pas de nuages en-dessous de 1500 mètres et pas de cumulonimbus.

METAR: LSZB 202250Z AUTO 12004KT CAVOK 15/15 Q1017

Heure: 01:11 (23:11 UTC)

Prévision

Le bulletin a été fait il y a 8 heures et 46 minutes, à 14:25 UTC
Prévision valable du 20 à 15 UTC au 20 à 24 UTC
Vent 5 kt de sud-est
Visibilité 10 km ou plus
Quelques nuages à une hauteur de 5000 ft
Nuages fragmentés à une hauteur de 10000 ft
Probabilité 40% :
Temporairement
du 20 à 15 UTC au 20 à 21 UTC
Quelques nuages à une hauteur de 5000 ft, Cumulus congestus.
averses de pluie,

TAF: LSZB 201425Z 2015/2024 14005KT 9999 FEW050 BKN100 PROB40 TEMPO 2015/2021 SHRA FEW050TCU

Observations et prévisions météorologiques de plus de 4000 aéroports (messages METAR et TAF).

Les stations disponibles sont représentées par des disques jaunes et rouges sur la carte.

Passer la souris dessus pour voir le nom de la station.

Cliquer dessus pour voir les observations et prévisions météorologiques.

Pour changer de carte: cliquez sur les boutons verts avec une croix noire pour zoomer, sur le bouton vert avec un tiret pour effectuer un zoom arrière, ou sur les flèches vertes pour les cartes adjacentes.


METAR-TAF: